Pagrindinis puslapis
METAR-TAF:

METAR-TAF

Oro uostai :

Kašijas do Sulas, Pietų Rio Grandė, Brazilija

platuma: 29-11-44S, ilguma: 051-11-23W, Aukštis: 754 m

Dabartinis oras

Ataskaita buvo paskelbta 12 valandos ir 35 minutes, ne 15:00 UTC
Vėjas 6 kt iš Šiaurės
Temperatūra 22°C
Drėgmė 33%
Slėgis 1022 hPa
Matomumas 10 km arba daugiau
nėra debesų žemiau 1500 m ir nėra kamuolinių lietaus debesų

METAR: SBCX 281500Z 36006KT CAVOK 22/05 Q1022

Laikas: 00:35 (03:35 UTC)


TAF: trūkstamas

Orai ataskaitas ir orų prognozės (METAR, TAF).

turimą stotys yra geltonos ir raudonos taškus žemėlapyje.

Perkelti pele per norėdami pamatyti stoties vardą.

Tada spustelėkite, norėdami matyti oro stebėjimo ir prognozės.

Norėdami pakeisti žemėlapį: spustelėkite ant žalios mygtukų su juodo kryžiaus žemyn,; žalią mygtuką su brūkšneliu, jei norite nutolinti; arba žalių rodyklių gretimoms žemėlapius.


METAR-TAF: